createdAt,value
2023-01-13T00:00:58.234Z,88.30
2023-01-13T00:03:25.183Z,100.20
2023-01-13T00:05:51.728Z,87.60
2023-01-13T00:08:18.280Z,75.20
2023-01-13T00:10:47.478Z,75.80
2023-01-13T00:13:14.424Z,79.40
2023-01-13T00:15:40.982Z,78.50
2023-01-13T00:18:07.620Z,68.40
2023-01-13T00:20:34.454Z,96.70
2023-01-13T00:23:00.995Z,64.30
2023-01-13T00:25:27.845Z,58.60
2023-01-13T00:27:54.392Z,64.60
2023-01-13T00:30:21.231Z,57.60
2023-01-13T00:32:47.774Z,70.90
2023-01-13T00:35:14.332Z,70.10
2023-01-13T00:37:40.857Z,67.20
2023-01-13T00:40:08.615Z,69.60
2023-01-13T00:42:35.105Z,59.20
2023-01-13T00:45:01.715Z,50.20
2023-01-13T00:47:28.348Z,47.10
2023-01-13T00:49:55.693Z,48.70
2023-01-13T00:52:22.267Z,54.10
2023-01-13T00:54:49.103Z,53.30
2023-01-13T00:57:15.647Z,55.00
2023-01-13T00:59:42.284Z,54.00
2023-01-13T01:02:08.983Z,59.40
2023-01-13T01:04:35.677Z,57.50
2023-01-13T01:07:02.423Z,54.00
2023-01-13T01:09:29.067Z,54.90
2023-01-13T01:11:55.627Z,50.80
2023-01-13T01:14:22.260Z,49.90
2023-01-13T01:16:49.099Z,46.40
2023-01-13T01:19:15.643Z,41.50
2023-01-13T01:21:42.181Z,42.30
2023-01-13T01:24:09.991Z,44.20
2023-01-13T01:26:36.597Z,42.40
2023-01-13T01:29:03.136Z,44.40
2023-01-13T01:31:32.165Z,42.10
2023-01-13T01:33:59.967Z,47.50
2023-01-13T01:36:27.883Z,45.90
2023-01-13T01:38:56.991Z,40.80
2023-01-13T01:41:25.879Z,44.80
2023-01-13T01:43:57.855Z,44.50
2023-01-13T01:46:24.738Z,45.90
2023-01-13T01:48:51.644Z,45.90
2023-01-13T01:51:18.385Z,40.50
2023-01-13T01:53:45.036Z,40.60
2023-01-13T01:56:11.776Z,44.40
2023-01-13T01:58:46.511Z,42.80
2023-01-13T02:01:14.765Z,40.40
2023-01-13T02:03:47.075Z,38.90
2023-01-13T02:06:14.814Z,38.30
2023-01-13T02:08:41.491Z,39.60
2023-01-13T02:11:08.336Z,43.00
2023-01-13T02:13:34.882Z,37.30
2023-01-13T02:16:22.150Z,39.70
2023-01-13T02:19:33.400Z,37.80
2023-01-13T02:22:37.932Z,25.90
2023-01-13T02:25:40.123Z,39.70
2023-01-13T02:28:42.287Z,39.10
2023-01-13T02:31:15.252Z,40.50
2023-01-13T02:34:09.569Z,48.50
2023-01-13T02:36:42.191Z,37.70
2023-01-13T02:39:35.531Z,33.30
2023-01-13T02:42:07.909Z,31.00
2023-01-13T02:44:46.848Z,31.00
2023-01-13T02:47:21.331Z,32.90
2023-01-13T02:49:56.308Z,31.20
2023-01-13T02:52:41.073Z,27.90
2023-01-13T02:55:16.014Z,26.40
2023-01-13T02:57:44.993Z,28.50
2023-01-13T03:00:13.493Z,26.80
2023-01-13T03:02:40.196Z,27.10
2023-01-13T03:05:07.413Z,26.70
2023-01-13T03:08:11.339Z,32.50
2023-01-13T03:10:59.164Z,32.60
2023-01-13T03:13:36.965Z,30.40
2023-01-13T03:16:31.452Z,29.60
2023-01-13T03:19:05.602Z,28.80
2023-01-13T03:21:35.198Z,31.40
2023-01-13T03:24:20.677Z,37.00
2023-01-13T03:27:06.181Z,36.30
2023-01-13T03:29:41.318Z,33.80
2023-01-13T03:32:18.084Z,29.90
2023-01-13T03:34:50.240Z,27.40
2023-01-13T03:37:20.984Z,24.80
2023-01-13T03:39:53.099Z,27.60
2023-01-13T03:42:25.968Z,27.80
2023-01-13T03:44:59.680Z,28.50
2023-01-13T03:47:48.108Z,29.60
2023-01-13T03:50:28.322Z,30.40
2023-01-13T03:53:02.391Z,30.80
2023-01-13T03:55:34.755Z,29.90
2023-01-13T03:58:20.013Z,30.50
2023-01-13T04:01:11.327Z,29.00
2023-01-13T04:04:03.512Z,29.00
2023-01-13T04:06:39.399Z,27.10
2023-01-13T04:09:15.742Z,25.20
2023-01-13T04:12:08.310Z,25.40
2023-01-13T04:14:36.516Z,25.10
2023-01-13T04:17:03.324Z,26.40
2023-01-13T04:19:29.787Z,29.90
2023-01-13T04:21:56.369Z,30.10
2023-01-13T04:24:22.964Z,33.00
2023-01-13T04:26:49.548Z,27.00
2023-01-13T04:29:16.138Z,30.40
2023-01-13T04:31:43.111Z,27.70
2023-01-13T04:34:13.447Z,29.70
2023-01-13T04:36:40.171Z,29.00
2023-01-13T04:39:06.643Z,30.20
2023-01-13T04:41:33.087Z,28.50
2023-01-13T04:43:59.530Z,28.70
2023-01-13T04:46:26.118Z,29.90
2023-01-13T04:48:52.598Z,30.60
2023-01-13T04:51:19.006Z,36.30
2023-01-13T04:53:45.547Z,31.00
2023-01-13T04:56:12.096Z,27.80
2023-01-13T04:58:38.549Z,28.50
2023-01-13T05:01:05.117Z,28.60
2023-01-13T05:03:31.810Z,28.60
2023-01-13T05:05:58.348Z,29.80
2023-01-13T05:08:24.905Z,29.20
2023-01-13T05:10:51.424Z,32.70
2023-01-13T05:13:18.078Z,28.20
2023-01-13T05:15:44.674Z,29.30
2023-01-13T05:18:11.872Z,28.30
2023-01-13T05:20:38.989Z,25.60
2023-01-13T05:23:05.563Z,26.00
2023-01-13T05:25:33.715Z,24.40
2023-01-13T05:28:00.745Z,24.40
2023-01-13T05:30:29.732Z,26.00
2023-01-13T05:32:56.881Z,28.40
2023-01-13T05:35:24.213Z,26.40
2023-01-13T05:37:50.913Z,25.90
2023-01-13T05:40:18.939Z,27.10
2023-01-13T05:42:45.501Z,29.50
2023-01-13T05:45:12.940Z,28.30
2023-01-13T05:47:39.688Z,29.40
2023-01-13T05:50:06.736Z,27.40
2023-01-13T05:52:33.390Z,27.10
2023-01-13T05:54:59.934Z,27.90
2023-01-13T05:57:26.405Z,25.90
2023-01-13T05:59:53.015Z,26.50
2023-01-13T06:02:19.424Z,30.00
2023-01-13T06:04:46.044Z,83.50
2023-01-13T06:07:12.630Z,39.30
2023-01-13T06:09:39.063Z,46.20
2023-01-13T06:12:06.299Z,41.50
2023-01-13T06:14:32.781Z,42.90
2023-01-13T06:16:59.820Z,44.50
2023-01-13T06:19:26.463Z,46.40
2023-01-13T06:21:56.380Z,46.50
2023-01-13T06:24:22.984Z,45.00
2023-01-13T06:26:49.514Z,37.80
2023-01-13T06:29:16.033Z,38.10
2023-01-13T06:31:43.263Z,40.20
2023-01-13T06:34:14.159Z,43.30
2023-01-13T06:36:46.159Z,41.80
2023-01-13T06:39:18.171Z,194.50
2023-01-13T06:41:47.475Z,95.20
2023-01-13T06:44:14.242Z,104.00
2023-01-13T06:46:40.806Z,70.30
2023-01-13T06:49:08.216Z,47.70
2023-01-13T06:51:35.038Z,44.30
2023-01-13T06:54:01.746Z,42.40
2023-01-13T06:56:28.207Z,40.60
2023-01-13T06:58:54.663Z,41.20
2023-01-13T07:01:21.401Z,60.30
2023-01-13T07:03:48.161Z,47.90
2023-01-13T07:06:14.619Z,41.50
2023-01-13T07:08:41.258Z,36.60
2023-01-13T07:11:07.765Z,35.20
2023-01-13T07:13:37.031Z,35.50
2023-01-13T07:16:06.080Z,34.50
2023-01-13T07:18:35.249Z,35.00
2023-01-13T07:21:07.158Z,37.10
2023-01-13T07:23:36.409Z,42.70
2023-01-13T07:26:03.458Z,47.70
2023-01-13T07:28:30.675Z,44.80
2023-01-13T07:30:58.220Z,39.40
2023-01-13T07:33:25.481Z,39.20
2023-01-13T07:36:00.179Z,47.40
2023-01-13T07:38:27.308Z,47.10
2023-01-13T07:40:53.776Z,68.90
2023-01-13T07:43:20.373Z,88.20
2023-01-13T07:45:47.034Z,59.20
2023-01-13T07:48:13.725Z,43.90
2023-01-13T07:50:41.560Z,47.10
2023-01-13T07:53:09.179Z,65.70
2023-01-13T07:55:35.625Z,64.40
2023-01-13T07:58:02.289Z,91.70
2023-01-13T08:00:29.010Z,72.60
2023-01-13T08:02:55.477Z,62.00
2023-01-13T08:05:22.032Z,52.50
2023-01-13T08:07:48.425Z,54.90
2023-01-13T08:10:15.179Z,53.20
2023-01-13T08:12:41.599Z,49.80
2023-01-13T08:15:20.213Z,46.10
2023-01-13T08:17:46.734Z,48.60
2023-01-13T08:20:13.255Z,45.80
2023-01-13T08:22:39.638Z,39.80
2023-01-13T08:25:06.761Z,39.10
2023-01-13T08:27:34.173Z,40.00
2023-01-13T08:30:00.649Z,39.40
2023-01-13T08:32:27.269Z,46.80
2023-01-13T08:34:53.988Z,46.70
2023-01-13T08:37:20.528Z,55.90
2023-01-13T08:39:47.167Z,66.60
2023-01-13T08:42:13.603Z,88.80
2023-01-13T08:44:40.073Z,74.10
2023-01-13T08:47:06.596Z,58.10
2023-01-13T08:49:33.145Z,59.00
2023-01-13T08:51:59.886Z,56.70
2023-01-13T08:54:26.440Z,51.40
2023-01-13T08:56:52.935Z,52.60
2023-01-13T08:59:20.377Z,55.10
2023-01-13T09:01:47.044Z,57.90
2023-01-13T09:04:19.868Z,67.60
2023-01-13T09:06:48.041Z,57.10
2023-01-13T09:09:15.082Z,57.80
2023-01-13T09:11:44.157Z,44.50
2023-01-13T09:14:10.729Z,45.10
2023-01-13T09:16:37.257Z,48.40
2023-01-13T09:19:03.678Z,53.30
2023-01-13T09:21:30.441Z,64.90
2023-01-13T09:23:56.873Z,67.90
2023-01-13T09:26:23.421Z,75.00
2023-01-13T09:28:50.067Z,72.80
2023-01-13T09:31:16.693Z,78.40
2023-01-13T09:33:43.255Z,70.40
2023-01-13T09:36:09.760Z,94.90
2023-01-13T09:38:36.180Z,142.90
2023-01-13T09:41:02.654Z,80.60
2023-01-13T09:43:37.808Z,74.80
2023-01-13T09:46:31.026Z,75.50
2023-01-13T09:48:59.146Z,72.80
2023-01-13T09:51:39.137Z,97.30
2023-01-13T09:54:20.504Z,70.60
2023-01-13T09:56:47.220Z,61.40
2023-01-13T09:59:14.721Z,59.50
2023-01-13T10:02:00.287Z,67.30
2023-01-13T10:04:27.862Z,66.80
2023-01-13T10:07:02.673Z,57.50
2023-01-13T10:09:49.089Z,55.90
2023-01-13T10:12:22.743Z,40.40
2023-01-13T10:14:55.596Z,42.10
2023-01-13T10:17:48.035Z,41.80
2023-01-13T10:20:20.253Z,38.80
2023-01-13T10:23:03.090Z,31.70
2023-01-13T10:25:37.098Z,30.60
2023-01-13T10:28:14.109Z,28.30
2023-01-13T10:30:43.359Z,17.50
2023-01-13T10:33:32.527Z,16.50
2023-01-13T10:36:12.697Z,9.90
2023-01-13T10:38:41.433Z,8.60
2023-01-13T10:41:17.038Z,6.70
2023-01-13T10:43:58.521Z,7.70
2023-01-13T10:48:54.468Z,6.80
2023-01-13T10:51:29.664Z,5.60
2023-01-13T10:53:59.327Z,4.70
2023-01-13T10:56:29.908Z,5.10
2023-01-13T10:59:16.982Z,5.30
2023-01-13T11:02:24.859Z,4.90
2023-01-13T11:04:58.731Z,5.10
2023-01-13T11:07:35.709Z,4.70
2023-01-13T11:10:23.609Z,5.30
2023-01-13T11:13:05.544Z,5.60
2023-01-13T11:15:55.398Z,5.20
2023-01-13T11:18:39.476Z,5.20
2023-01-13T11:21:37.073Z,4.70
2023-01-13T11:24:35.838Z,4.50
2023-01-13T11:27:13.746Z,4.70
2023-01-13T11:30:17.674Z,5.10
2023-01-13T11:32:53.415Z,5.20
2023-01-13T11:35:21.909Z,5.70
2023-01-13T11:37:53.719Z,5.00
2023-01-13T11:40:41.668Z,5.50
2023-01-13T11:43:35.130Z,4.70
2023-01-13T11:46:01.906Z,4.70
2023-01-13T11:48:32.487Z,4.90
2023-01-13T11:51:10.930Z,4.80
2023-01-13T11:54:03.542Z,4.80
2023-01-13T11:56:45.868Z,4.90
2023-01-13T11:59:12.462Z,5.10
2023-01-13T12:02:01.073Z,4.70
2023-01-13T12:04:38.960Z,4.80
2023-01-13T12:07:17.126Z,4.90
2023-01-13T12:10:13.092Z,5.20
2023-01-13T12:12:54.193Z,5.60
2023-01-13T12:15:20.949Z,5.70
2023-01-13T12:18:11.830Z,6.20
2023-01-13T12:20:56.882Z,5.90
2023-01-13T12:23:35.241Z,6.20
2023-01-13T12:26:08.028Z,6.10
2023-01-13T12:28:53.806Z,5.20
2023-01-13T12:31:22.429Z,4.90
2023-01-13T12:34:04.864Z,5.20
2023-01-13T12:36:47.639Z,4.70
2023-01-13T12:39:24.208Z,4.10
2023-01-13T12:42:06.275Z,5.20
2023-01-13T12:44:32.752Z,5.90
2023-01-13T12:47:00.672Z,5.10
2023-01-13T12:49:35.089Z,5.40
2023-01-13T12:52:07.528Z,5.00
2023-01-13T12:54:53.936Z,5.10
2023-01-13T12:57:26.963Z,5.40
2023-01-13T12:59:59.362Z,5.10
2023-01-13T13:03:09.862Z,5.00
2023-01-13T13:05:51.184Z,5.10
2023-01-13T13:08:22.931Z,5.20
2023-01-13T13:11:18.433Z,5.70
2023-01-13T13:13:48.675Z,5.30
2023-01-13T13:16:27.168Z,5.00
2023-01-13T13:19:19.507Z,5.00
2023-01-13T13:22:14.347Z,4.90
2023-01-13T13:24:42.705Z,4.90
2023-01-13T13:27:21.681Z,5.90
2023-01-13T13:30:01.844Z,7.20
2023-01-13T13:32:56.086Z,16.70
2023-01-13T13:35:55.431Z,21.10
2023-01-13T13:39:26.823Z,9.60
2023-01-13T13:42:12.151Z,7.60
2023-01-13T13:44:48.131Z,6.80
2023-01-13T13:47:15.067Z,6.20
2023-01-13T13:49:45.820Z,5.70
2023-01-13T13:52:22.269Z,4.80
2023-01-13T13:54:55.595Z,5.10
2023-01-13T13:57:25.194Z,6.10
2023-01-13T13:59:55.844Z,8.70
2023-01-13T14:02:47.053Z,8.80
2023-01-13T14:05:18.507Z,6.20
2023-01-13T14:07:48.309Z,5.50
2023-01-13T14:10:23.227Z,5.90
2023-01-13T14:12:49.849Z,5.90
2023-01-13T14:15:28.645Z,6.70
2023-01-13T14:17:55.265Z,6.40
2023-01-13T14:20:21.932Z,8.40
2023-01-13T14:22:51.556Z,9.40
2023-01-13T14:25:38.923Z,7.90
2023-01-13T14:28:28.678Z,8.10
2023-01-13T14:30:57.165Z,8.80
2023-01-13T14:33:38.648Z,9.50
2023-01-13T14:36:17.349Z,8.50
2023-01-13T14:38:47.200Z,8.80
2023-01-13T14:41:21.703Z,10.70
2023-01-13T14:43:51.128Z,12.50
2023-01-13T14:46:17.961Z,13.60
2023-01-13T14:48:46.411Z,18.30
2023-01-13T14:51:21.714Z,13.70
2023-01-13T14:53:49.380Z,30.30
2023-01-13T14:56:52.269Z,68.30
2023-01-13T14:59:41.880Z,23.70
2023-01-13T15:02:30.358Z,25.80
2023-01-13T15:05:17.739Z,16.20
2023-01-13T15:07:54.628Z,16.30
2023-01-13T15:10:25.482Z,16.00
2023-01-13T15:12:54.414Z,15.70
2023-01-13T15:15:30.959Z,18.30
2023-01-13T15:17:57.567Z,18.70
2023-01-13T15:20:24.954Z,26.30
2023-01-13T15:22:52.908Z,16.40
2023-01-13T15:25:19.943Z,8.50
2023-01-13T15:27:48.605Z,10.30
2023-01-13T15:30:23.819Z,12.20
2023-01-13T15:32:51.971Z,13.70
2023-01-13T15:35:20.141Z,10.20
2023-01-13T15:37:49.255Z,6.40
2023-01-13T15:40:25.604Z,7.50
2023-01-13T15:42:52.150Z,8.80
2023-01-13T15:45:18.545Z,11.90
2023-01-13T15:47:45.192Z,8.80
2023-01-13T15:50:16.642Z,14.60
2023-01-13T15:52:43.159Z,13.00
2023-01-13T15:55:10.960Z,22.00
2023-01-13T15:57:39.487Z,13.50
2023-01-13T16:00:19.785Z,12.30
2023-01-13T16:02:46.622Z,9.30
2023-01-13T16:05:13.348Z,5.70
2023-01-13T16:07:39.813Z,6.30
2023-01-13T16:10:14.894Z,7.20
2023-01-13T16:12:41.406Z,14.30
2023-01-13T16:15:08.522Z,16.70
2023-01-13T16:17:35.540Z,12.10
2023-01-13T16:20:02.231Z,11.40
2023-01-13T16:22:28.637Z,8.20
2023-01-13T16:24:55.092Z,10.40
2023-01-13T16:27:24.228Z,8.80
2023-01-13T16:29:52.516Z,11.80
2023-01-13T16:32:19.129Z,9.90
2023-01-13T16:34:45.695Z,11.40
2023-01-13T16:37:20.123Z,10.10
2023-01-13T16:39:48.011Z,9.90
2023-01-13T16:42:14.963Z,9.70
2023-01-13T16:44:41.601Z,10.80
2023-01-13T16:47:16.673Z,9.10
2023-01-13T16:49:43.908Z,9.60
2023-01-13T16:52:10.782Z,7.50
2023-01-13T16:54:37.242Z,8.70
2023-01-13T16:57:04.050Z,7.80
2023-01-13T16:59:30.471Z,10.80
2023-01-13T17:01:56.985Z,11.80
2023-01-13T17:04:23.713Z,10.60
2023-01-13T17:07:07.570Z,10.70
2023-01-13T17:09:34.383Z,8.50
2023-01-13T17:12:01.612Z,8.10
2023-01-13T17:14:28.073Z,7.70
2023-01-13T17:16:57.956Z,7.50
2023-01-13T17:19:24.902Z,7.40
2023-01-13T17:21:51.499Z,8.50
2023-01-13T17:24:18.141Z,8.30
2023-01-13T17:26:49.851Z,9.70
2023-01-13T17:29:22.382Z,9.20
2023-01-13T17:31:50.481Z,10.10
2023-01-13T17:34:18.010Z,12.40
2023-01-13T17:36:44.861Z,9.40
2023-01-13T17:39:21.443Z,8.10
2023-01-13T17:41:48.279Z,7.50
2023-01-13T17:44:16.962Z,10.50
2023-01-13T17:46:44.217Z,9.10
2023-01-13T17:49:11.877Z,7.00
2023-01-13T17:51:38.311Z,7.20
2023-01-13T17:54:04.865Z,7.40
2023-01-13T17:56:31.687Z,8.70
2023-01-13T17:58:58.198Z,7.70
2023-01-13T18:01:24.768Z,6.90
2023-01-13T18:03:51.543Z,7.30
2023-01-13T18:06:22.066Z,8.20
2023-01-13T18:08:49.944Z,7.90
2023-01-13T18:11:18.306Z,7.40
2023-01-13T18:13:49.008Z,9.30
2023-01-13T18:16:17.708Z,8.90
2023-01-13T18:18:47.673Z,9.00
2023-01-13T18:21:25.654Z,9.70
2023-01-13T18:23:52.858Z,10.30
2023-01-13T18:26:20.806Z,9.10
2023-01-13T18:28:47.352Z,11.90
2023-01-13T18:31:13.907Z,9.30
2023-01-13T18:33:40.400Z,9.30
2023-01-13T18:36:08.032Z,9.50
2023-01-13T18:38:34.529Z,8.60
2023-01-13T18:41:00.977Z,7.90
2023-01-13T18:43:27.528Z,9.50
2023-01-13T18:45:53.996Z,8.10
2023-01-13T18:48:20.620Z,9.00
2023-01-13T18:50:47.149Z,16.40
2023-01-13T18:53:13.638Z,10.70
2023-01-13T18:55:40.227Z,8.70
2023-01-13T18:58:06.780Z,8.40
2023-01-13T19:00:33.526Z,10.50
2023-01-13T19:05:34.192Z,12.00
2023-01-13T19:08:00.714Z,10.90
2023-01-13T19:10:27.357Z,8.90
2023-01-13T19:12:53.995Z,9.50
2023-01-13T19:15:20.656Z,9.70
2023-01-13T19:17:47.088Z,10.80
2023-01-13T19:20:13.576Z,14.00
2023-01-13T19:22:40.372Z,17.50
2023-01-13T19:25:07.100Z,17.90
2023-01-13T19:27:33.587Z,14.80
2023-01-13T19:30:00.083Z,14.40
2023-01-13T19:32:27.986Z,17.40
2023-01-13T19:34:55.160Z,30.60
2023-01-13T19:37:21.834Z,30.30
2023-01-13T19:39:48.281Z,34.70
2023-01-13T19:42:14.850Z,39.30
2023-01-13T19:44:41.387Z,36.60
2023-01-13T19:47:07.932Z,33.80
2023-01-13T19:49:34.579Z,35.90
2023-01-13T19:52:01.107Z,41.10
2023-01-13T19:54:28.013Z,58.60
2023-01-13T19:56:54.577Z,60.10
2023-01-13T19:59:21.153Z,64.80
2023-01-13T20:01:50.663Z,78.50
2023-01-13T20:04:17.530Z,71.10
2023-01-13T20:06:44.556Z,45.60
2023-01-13T20:09:11.611Z,83.20
2023-01-13T20:11:38.457Z,76.80
2023-01-13T20:14:05.307Z,74.60
2023-01-13T20:16:32.052Z,81.50
2023-01-13T20:18:58.899Z,96.30
2023-01-13T20:21:25.438Z,75.50
2023-01-13T20:23:53.045Z,77.20
2023-01-13T20:26:20.879Z,90.50
2023-01-13T20:28:47.933Z,93.20
2023-01-13T20:31:15.842Z,94.30
2023-01-13T20:33:42.648Z,108.80
2023-01-13T20:36:27.625Z,108.50
2023-01-13T20:38:58.106Z,97.80
2023-01-13T20:41:25.112Z,96.90
2023-01-13T20:43:52.946Z,113.40
2023-01-13T20:46:20.078Z,74.10
2023-01-13T20:48:46.864Z,83.10
2023-01-13T20:51:14.316Z,81.10
2023-01-13T20:53:40.771Z,86.30
2023-01-13T20:56:08.757Z,72.20
2023-01-13T20:58:38.436Z,63.40
2023-01-13T21:01:05.707Z,49.50
2023-01-13T21:03:32.495Z,60.70
2023-01-13T21:05:59.009Z,55.20
2023-01-13T21:08:25.713Z,54.00
2023-01-13T21:10:52.282Z,42.60
2023-01-13T21:13:18.711Z,35.70
2023-01-13T21:15:48.535Z,32.00
2023-01-13T21:18:15.048Z,29.00
2023-01-13T21:20:41.618Z,28.70
2023-01-13T21:23:08.885Z,30.90
2023-01-13T21:25:35.643Z,43.40
2023-01-13T21:28:02.672Z,24.30
2023-01-13T21:30:29.223Z,24.80
2023-01-13T21:32:55.668Z,30.10
2023-01-13T21:35:22.213Z,27.90
2023-01-13T21:37:48.725Z,29.90
2023-01-13T21:40:15.682Z,30.50
2023-01-13T21:42:42.221Z,32.40
2023-01-13T21:45:10.385Z,38.40
2023-01-13T21:47:36.945Z,42.80
2023-01-13T21:50:06.941Z,58.80
2023-01-13T21:52:33.509Z,65.30
2023-01-13T21:54:59.941Z,45.40
2023-01-13T21:57:27.727Z,37.40
2023-01-13T21:59:54.399Z,32.60
2023-01-13T22:02:23.917Z,30.90
2023-01-13T22:04:51.421Z,13.40
2023-01-13T22:07:18.911Z,18.20
2023-01-13T22:09:45.421Z,15.00
2023-01-13T22:12:12.061Z,13.70
2023-01-13T22:14:38.601Z,12.40
2023-01-13T22:17:05.258Z,12.70
2023-01-13T22:19:31.687Z,14.20
2023-01-13T22:21:58.618Z,15.70
2023-01-13T22:24:25.177Z,21.10
2023-01-13T22:26:51.638Z,18.20
2023-01-13T22:29:18.104Z,18.00
2023-01-13T22:31:44.615Z,17.90
2023-01-13T22:34:12.467Z,18.50
2023-01-13T22:36:39.004Z,15.60
2023-01-13T22:39:05.449Z,18.30
2023-01-13T22:41:32.151Z,21.00
2023-01-13T22:43:58.881Z,18.30
2023-01-13T22:46:25.311Z,17.70
2023-01-13T22:48:51.737Z,18.70
2023-01-13T22:51:18.220Z,17.60
2023-01-13T22:53:45.122Z,16.00
2023-01-13T22:56:20.440Z,13.80
2023-01-13T22:58:46.981Z,13.90
2023-01-13T23:01:16.237Z,16.00
2023-01-13T23:03:43.342Z,14.20
2023-01-13T23:06:09.878Z,12.70
2023-01-13T23:08:36.725Z,12.70
2023-01-13T23:11:09.982Z,20.00
2023-01-13T23:13:37.805Z,26.80
2023-01-13T23:16:08.512Z,27.10
2023-01-13T23:18:35.374Z,33.00
2023-01-13T23:21:07.753Z,33.00
2023-01-13T23:23:34.801Z,32.30
2023-01-13T23:26:27.660Z,31.50
2023-01-13T23:28:58.582Z,29.10
2023-01-13T23:31:25.042Z,33.20
2023-01-13T23:33:51.590Z,32.00
2023-01-13T23:36:20.765Z,32.30
2023-01-13T23:38:47.746Z,33.10
2023-01-13T23:41:16.707Z,35.10
2023-01-13T23:43:43.459Z,32.80
2023-01-13T23:46:13.363Z,34.60
2023-01-13T23:48:40.449Z,34.00
2023-01-13T23:51:10.613Z,35.30
2023-01-13T23:53:46.600Z,38.20
2023-01-13T23:56:19.115Z,40.60
2023-01-13T23:58:46.517Z,38.70
